sensor_id;sensor_type;location;lat;lon;timestamp;P1;durP1;ratioP1;P2;durP2;ratioP2
24685;SDS011;12804;51.176;4.452;2022-11-15T00:00:07;35.47;;;22.60;;
24685;SDS011;12804;51.176;4.452;2022-11-15T00:02:52;33.08;;;21.17;;
24685;SDS011;12804;51.176;4.452;2022-11-15T00:05:37;32.38;;;21.83;;
24685;SDS011;12804;51.176;4.452;2022-11-15T00:08:21;33.35;;;21.90;;
24685;SDS011;12804;51.176;4.452;2022-11-15T00:11:05;32.00;;;21.50;;
24685;SDS011;12804;51.176;4.452;2022-11-15T00:13:49;38.20;;;22.17;;
24685;SDS011;12804;51.176;4.452;2022-11-15T00:16:34;32.28;;;21.80;;
24685;SDS011;12804;51.176;4.452;2022-11-15T00:19:18;31.75;;;20.20;;
24685;SDS011;12804;51.176;4.452;2022-11-15T00:22:02;28.65;;;20.48;;
24685;SDS011;12804;51.176;4.452;2022-11-15T00:24:46;30.58;;;19.98;;
24685;SDS011;12804;51.176;4.452;2022-11-15T00:27:30;29.25;;;20.67;;
24685;SDS011;12804;51.176;4.452;2022-11-15T00:30:15;31.05;;;21.00;;
24685;SDS011;12804;51.176;4.452;2022-11-15T00:33:03;29.33;;;21.00;;
24685;SDS011;12804;51.176;4.452;2022-11-15T00:35:48;29.10;;;20.38;;
24685;SDS011;12804;51.176;4.452;2022-11-15T00:38:33;27.98;;;20.42;;
24685;SDS011;12804;51.176;4.452;2022-11-15T00:41:18;27.33;;;20.27;;
24685;SDS011;12804;51.176;4.452;2022-11-15T00:44:02;29.52;;;20.30;;
24685;SDS011;12804;51.176;4.452;2022-11-15T00:46:46;26.45;;;19.35;;
24685;SDS011;12804;51.176;4.452;2022-11-15T00:49:30;28.73;;;19.77;;
24685;SDS011;12804;51.176;4.452;2022-11-15T00:52:15;26.10;;;19.35;;
24685;SDS011;12804;51.176;4.452;2022-11-15T00:54:59;26.58;;;18.58;;
24685;SDS011;12804;51.176;4.452;2022-11-15T00:57:44;29.15;;;18.25;;
24685;SDS011;12804;51.176;4.452;2022-11-15T01:00:28;28.23;;;19.00;;
24685;SDS011;12804;51.176;4.452;2022-11-15T01:03:13;24.42;;;17.63;;
24685;SDS011;12804;51.176;4.452;2022-11-15T01:05:58;24.77;;;17.70;;
24685;SDS011;12804;51.176;4.452;2022-11-15T01:08:43;26.77;;;17.95;;
24685;SDS011;12804;51.176;4.452;2022-11-15T01:11:27;24.98;;;17.92;;
24685;SDS011;12804;51.176;4.452;2022-11-15T01:14:11;24.33;;;17.15;;
24685;SDS011;12804;51.176;4.452;2022-11-15T01:16:55;24.52;;;16.50;;
24685;SDS011;12804;51.176;4.452;2022-11-15T01:19:40;25.77;;;17.65;;
24685;SDS011;12804;51.176;4.452;2022-11-15T01:22:24;23.92;;;17.05;;
24685;SDS011;12804;51.176;4.452;2022-11-15T01:25:09;27.48;;;16.83;;
24685;SDS011;12804;51.176;4.452;2022-11-15T01:27:53;23.38;;;16.33;;
24685;SDS011;12804;51.176;4.452;2022-11-15T01:30:37;21.27;;;15.90;;
24685;SDS011;12804;51.176;4.452;2022-11-15T01:33:21;22.45;;;15.95;;
24685;SDS011;12804;51.176;4.452;2022-11-15T01:36:06;20.13;;;15.55;;
24685;SDS011;12804;51.176;4.452;2022-11-15T01:38:53;23.52;;;15.70;;
24685;SDS011;12804;51.176;4.452;2022-11-15T01:41:38;19.40;;;14.82;;
24685;SDS011;12804;51.176;4.452;2022-11-15T01:44:34;19.80;;;14.85;;
24685;SDS011;12804;51.176;4.452;2022-11-15T01:47:37;22.35;;;14.35;;
24685;SDS011;12804;51.176;4.452;2022-11-15T01:50:26;18.25;;;14.18;;
24685;SDS011;12804;51.176;4.452;2022-11-15T01:53:14;19.27;;;14.35;;
24685;SDS011;12804;51.176;4.452;2022-11-15T01:56:01;18.15;;;13.88;;
24685;SDS011;12804;51.176;4.452;2022-11-15T01:58:48;18.73;;;13.65;;
24685;SDS011;12804;51.176;4.452;2022-11-15T02:01:34;19.08;;;13.75;;
24685;SDS011;12804;51.176;4.452;2022-11-15T02:04:26;20.80;;;13.60;;
24685;SDS011;12804;51.176;4.452;2022-11-15T02:07:16;21.38;;;13.60;;
24685;SDS011;12804;51.176;4.452;2022-11-15T02:10:17;19.40;;;13.45;;
24685;SDS011;12804;51.176;4.452;2022-11-15T02:13:06;18.67;;;12.88;;
24685;SDS011;12804;51.176;4.452;2022-11-15T02:18:55;19.63;;;13.70;;
24685;SDS011;12804;51.176;4.452;2022-11-15T02:37:39;19.67;;;12.63;;
24685;SDS011;12804;51.176;4.452;2022-11-15T02:40:41;17.95;;;12.63;;
24685;SDS011;12804;51.176;4.452;2022-11-15T02:43:53;25.33;;;12.98;;
24685;SDS011;12804;51.176;4.452;2022-11-15T02:46:45;19.95;;;12.45;;
24685;SDS011;12804;51.176;4.452;2022-11-15T02:49:57;17.80;;;12.50;;
24685;SDS011;12804;51.176;4.452;2022-11-15T02:52:45;24.77;;;13.02;;
24685;SDS011;12804;51.176;4.452;2022-11-15T02:55:32;19.48;;;13.43;;
24685;SDS011;12804;51.176;4.452;2022-11-15T03:04:54;14.65;;;12.00;;
24685;SDS011;12804;51.176;4.452;2022-11-15T03:10:46;14.88;;;11.43;;
24685;SDS011;12804;51.176;4.452;2022-11-15T03:19:38;17.38;;;11.70;;
24685;SDS011;12804;51.176;4.452;2022-11-15T03:22:33;18.58;;;12.05;;
24685;SDS011;12804;51.176;4.452;2022-11-15T03:25:24;18.67;;;12.15;;
24685;SDS011;12804;51.176;4.452;2022-11-15T03:28:11;18.40;;;12.63;;
24685;SDS011;12804;51.176;4.452;2022-11-15T03:31:00;16.65;;;11.90;;
24685;SDS011;12804;51.176;4.452;2022-11-15T03:34:06;17.83;;;11.98;;
24685;SDS011;12804;51.176;4.452;2022-11-15T03:36:55;17.30;;;11.35;;
24685;SDS011;12804;51.176;4.452;2022-11-15T03:39:39;16.38;;;11.77;;
24685;SDS011;12804;51.176;4.452;2022-11-15T03:42:31;17.30;;;11.05;;
24685;SDS011;12804;51.176;4.452;2022-11-15T03:45:23;17.85;;;11.57;;
24685;SDS011;12804;51.176;4.452;2022-11-15T03:48:20;14.70;;;9.70;;
24685;SDS011;12804;51.176;4.452;2022-11-15T03:51:08;14.93;;;10.02;;
24685;SDS011;12804;51.176;4.452;2022-11-15T03:53:53;15.02;;;9.82;;
24685;SDS011;12804;51.176;4.452;2022-11-15T03:56:37;13.75;;;9.10;;
24685;SDS011;12804;51.176;4.452;2022-11-15T03:59:21;14.93;;;9.35;;
24685;SDS011;12804;51.176;4.452;2022-11-15T04:02:06;13.88;;;8.73;;
24685;SDS011;12804;51.176;4.452;2022-11-15T04:04:50;13.45;;;8.60;;
24685;SDS011;12804;51.176;4.452;2022-11-15T04:07:34;12.80;;;8.10;;
24685;SDS011;12804;51.176;4.452;2022-11-15T04:10:19;10.73;;;8.25;;
24685;SDS011;12804;51.176;4.452;2022-11-15T04:13:03;11.75;;;7.32;;
24685;SDS011;12804;51.176;4.452;2022-11-15T04:15:48;13.70;;;8.18;;
24685;SDS011;12804;51.176;4.452;2022-11-15T04:18:32;11.02;;;7.28;;
24685;SDS011;12804;51.176;4.452;2022-11-15T04:21:16;13.50;;;7.43;;
24685;SDS011;12804;51.176;4.452;2022-11-15T04:24:19;11.98;;;7.57;;
24685;SDS011;12804;51.176;4.452;2022-11-15T04:27:03;10.77;;;6.68;;
24685;SDS011;12804;51.176;4.452;2022-11-15T04:29:48;8.73;;;7.03;;
24685;SDS011;12804;51.176;4.452;2022-11-15T04:32:32;13.20;;;7.30;;
24685;SDS011;12804;51.176;4.452;2022-11-15T04:35:16;13.80;;;7.03;;
24685;SDS011;12804;51.176;4.452;2022-11-15T04:38:01;12.40;;;7.28;;
24685;SDS011;12804;51.176;4.452;2022-11-15T04:40:46;16.10;;;8.10;;
24685;SDS011;12804;51.176;4.452;2022-11-15T04:43:30;14.23;;;7.40;;
24685;SDS011;12804;51.176;4.452;2022-11-15T04:46:15;10.45;;;6.97;;
24685;SDS011;12804;51.176;4.452;2022-11-15T04:48:59;11.77;;;7.28;;
24685;SDS011;12804;51.176;4.452;2022-11-15T04:51:43;9.48;;;6.88;;
24685;SDS011;12804;51.176;4.452;2022-11-15T04:54:28;8.32;;;6.45;;
24685;SDS011;12804;51.176;4.452;2022-11-15T04:57:12;12.02;;;7.18;;
24685;SDS011;12804;51.176;4.452;2022-11-15T04:59:58;12.25;;;7.10;;
24685;SDS011;12804;51.176;4.452;2022-11-15T05:02:42;10.25;;;6.78;;
24685;SDS011;12804;51.176;4.452;2022-11-15T05:05:56;11.38;;;6.82;;
24685;SDS011;12804;51.176;4.452;2022-11-15T05:08:41;10.77;;;6.47;;
24685;SDS011;12804;51.176;4.452;2022-11-15T05:11:25;11.73;;;6.72;;
24685;SDS011;12804;51.176;4.452;2022-11-15T05:14:11;9.55;;;6.68;;
24685;SDS011;12804;51.176;4.452;2022-11-15T05:16:55;10.77;;;7.28;;
24685;SDS011;12804;51.176;4.452;2022-11-15T05:19:40;12.25;;;6.65;;
24685;SDS011;12804;51.176;4.452;2022-11-15T05:22:25;10.70;;;6.70;;
24685;SDS011;12804;51.176;4.452;2022-11-15T05:25:10;11.10;;;6.63;;
24685;SDS011;12804;51.176;4.452;2022-11-15T05:27:54;11.40;;;6.93;;
24685;SDS011;12804;51.176;4.452;2022-11-15T05:30:39;12.23;;;6.63;;
24685;SDS011;12804;51.176;4.452;2022-11-15T05:33:23;9.82;;;6.15;;
24685;SDS011;12804;51.176;4.452;2022-11-15T05:39:15;10.35;;;6.35;;
24685;SDS011;12804;51.176;4.452;2022-11-15T05:42:08;11.60;;;6.30;;
24685;SDS011;12804;51.176;4.452;2022-11-15T05:44:55;11.82;;;6.13;;
24685;SDS011;12804;51.176;4.452;2022-11-15T05:47:41;10.00;;;6.00;;
24685;SDS011;12804;51.176;4.452;2022-11-15T05:50:27;15.88;;;6.70;;
24685;SDS011;12804;51.176;4.452;2022-11-15T05:53:11;10.70;;;6.13;;
24685;SDS011;12804;51.176;4.452;2022-11-15T05:55:58;12.90;;;5.85;;
24685;SDS011;12804;51.176;4.452;2022-11-15T05:58:42;8.68;;;5.97;;
24685;SDS011;12804;51.176;4.452;2022-11-15T06:01:27;10.90;;;6.13;;
24685;SDS011;12804;51.176;4.452;2022-11-15T06:04:11;10.88;;;6.00;;
24685;SDS011;12804;51.176;4.452;2022-11-15T06:06:55;10.85;;;6.10;;
24685;SDS011;12804;51.176;4.452;2022-11-15T06:09:42;9.52;;;5.88;;
24685;SDS011;12804;51.176;4.452;2022-11-15T06:12:26;8.32;;;5.70;;
24685;SDS011;12804;51.176;4.452;2022-11-15T06:15:10;7.45;;;4.80;;
24685;SDS011;12804;51.176;4.452;2022-11-15T06:17:57;8.88;;;5.00;;
24685;SDS011;12804;51.176;4.452;2022-11-15T06:20:42;13.48;;;4.82;;
24685;SDS011;12804;51.176;4.452;2022-11-15T06:23:27;8.57;;;4.65;;
24685;SDS011;12804;51.176;4.452;2022-11-15T06:26:14;9.70;;;4.78;;
24685;SDS011;12804;51.176;4.452;2022-11-15T06:28:58;15.07;;;4.55;;
24685;SDS011;12804;51.176;4.452;2022-11-15T06:31:43;8.23;;;4.68;;
24685;SDS011;12804;51.176;4.452;2022-11-15T06:34:27;9.68;;;4.50;;
24685;SDS011;12804;51.176;4.452;2022-11-15T06:37:11;9.43;;;4.32;;
24685;SDS011;12804;51.176;4.452;2022-11-15T06:39:56;13.50;;;4.53;;
24685;SDS011;12804;51.176;4.452;2022-11-15T06:42:40;6.35;;;4.40;;
24685;SDS011;12804;51.176;4.452;2022-11-15T06:45:24;8.48;;;4.45;;
24685;SDS011;12804;51.176;4.452;2022-11-15T06:48:09;8.43;;;4.45;;
24685;SDS011;12804;51.176;4.452;2022-11-15T06:50:53;9.50;;;5.47;;
24685;SDS011;12804;51.176;4.452;2022-11-15T06:53:39;10.15;;;6.20;;
24685;SDS011;12804;51.176;4.452;2022-11-15T06:56:23;13.85;;;6.45;;
24685;SDS011;12804;51.176;4.452;2022-11-15T06:59:08;12.98;;;6.80;;
24685;SDS011;12804;51.176;4.452;2022-11-15T07:01:52;11.95;;;6.32;;
24685;SDS011;12804;51.176;4.452;2022-11-15T07:04:37;11.25;;;5.72;;
24685;SDS011;12804;51.176;4.452;2022-11-15T07:07:22;11.32;;;5.85;;
24685;SDS011;12804;51.176;4.452;2022-11-15T07:10:06;10.00;;;5.40;;
24685;SDS011;12804;51.176;4.452;2022-11-15T07:12:51;10.75;;;5.63;;
24685;SDS011;12804;51.176;4.452;2022-11-15T07:15:36;10.48;;;5.03;;
24685;SDS011;12804;51.176;4.452;2022-11-15T07:18:20;9.80;;;5.72;;
24685;SDS011;12804;51.176;4.452;2022-11-15T07:21:09;7.85;;;5.65;;
24685;SDS011;12804;51.176;4.452;2022-11-15T07:23:54;13.10;;;6.15;;
24685;SDS011;12804;51.176;4.452;2022-11-15T07:26:38;13.82;;;6.32;;
24685;SDS011;12804;51.176;4.452;2022-11-15T07:29:22;14.35;;;5.90;;
24685;SDS011;12804;51.176;4.452;2022-11-15T07:32:07;6.55;;;4.22;;
24685;SDS011;12804;51.176;4.452;2022-11-15T07:34:53;8.95;;;5.38;;
24685;SDS011;12804;51.176;4.452;2022-11-15T07:37:37;10.50;;;5.53;;
24685;SDS011;12804;51.176;4.452;2022-11-15T07:40:21;10.88;;;5.63;;
24685;SDS011;12804;51.176;4.452;2022-11-15T07:43:06;11.50;;;5.68;;
24685;SDS011;12804;51.176;4.452;2022-11-15T07:45:51;11.68;;;5.93;;
24685;SDS011;12804;51.176;4.452;2022-11-15T07:48:36;8.85;;;5.90;;
24685;SDS011;12804;51.176;4.452;2022-11-15T07:51:21;11.65;;;5.72;;
24685;SDS011;12804;51.176;4.452;2022-11-15T07:54:05;15.52;;;5.97;;
24685;SDS011;12804;51.176;4.452;2022-11-15T07:56:49;12.43;;;6.00;;
24685;SDS011;12804;51.176;4.452;2022-11-15T07:59:33;10.82;;;5.72;;
24685;SDS011;12804;51.176;4.452;2022-11-15T08:02:18;11.40;;;5.28;;
24685;SDS011;12804;51.176;4.452;2022-11-15T08:05:03;10.02;;;5.25;;
24685;SDS011;12804;51.176;4.452;2022-11-15T08:07:47;9.65;;;5.30;;
24685;SDS011;12804;51.176;4.452;2022-11-15T08:10:32;8.82;;;4.80;;
24685;SDS011;12804;51.176;4.452;2022-11-15T08:13:17;12.40;;;5.20;;
24685;SDS011;12804;51.176;4.452;2022-11-15T08:16:01;7.90;;;5.03;;
24685;SDS011;12804;51.176;4.452;2022-11-15T08:18:48;7.70;;;4.72;;
24685;SDS011;12804;51.176;4.452;2022-11-15T08:21:33;8.88;;;4.97;;
24685;SDS011;12804;51.176;4.452;2022-11-15T08:24:18;8.05;;;4.13;;
24685;SDS011;12804;51.176;4.452;2022-11-15T08:27:03;9.30;;;4.57;;
24685;SDS011;12804;51.176;4.452;2022-11-15T08:29:48;9.00;;;4.35;;
24685;SDS011;12804;51.176;4.452;2022-11-15T08:32:34;11.02;;;4.82;;
24685;SDS011;12804;51.176;4.452;2022-11-15T08:35:19;6.93;;;4.40;;
24685;SDS011;12804;51.176;4.452;2022-11-15T08:38:04;7.75;;;3.28;;
24685;SDS011;12804;51.176;4.452;2022-11-15T08:40:48;6.30;;;4.03;;
24685;SDS011;12804;51.176;4.452;2022-11-15T08:43:33;9.00;;;3.90;;
24685;SDS011;12804;51.176;4.452;2022-11-15T08:46:18;11.98;;;4.18;;
24685;SDS011;12804;51.176;4.452;2022-11-15T08:49:02;9.73;;;3.55;;
24685;SDS011;12804;51.176;4.452;2022-11-15T08:51:47;14.52;;;3.88;;
24685;SDS011;12804;51.176;4.452;2022-11-15T08:54:31;7.30;;;2.95;;
24685;SDS011;12804;51.176;4.452;2022-11-15T08:57:16;7.70;;;2.95;;
24685;SDS011;12804;51.176;4.452;2022-11-15T09:00:00;4.05;;;2.80;;
24685;SDS011;12804;51.176;4.452;2022-11-15T09:02:45;6.30;;;2.70;;
24685;SDS011;12804;51.176;4.452;2022-11-15T09:05:29;10.75;;;2.95;;
24685;SDS011;12804;51.176;4.452;2022-11-15T09:08:14;7.88;;;3.13;;
24685;SDS011;12804;51.176;4.452;2022-11-15T09:11:02;8.20;;;2.70;;
24685;SDS011;12804;51.176;4.452;2022-11-15T09:13:50;9.68;;;2.92;;
24685;SDS011;12804;51.176;4.452;2022-11-15T09:16:35;8.40;;;2.10;;
24685;SDS011;12804;51.176;4.452;2022-11-15T09:19:19;6.28;;;2.28;;
24685;SDS011;12804;51.176;4.452;2022-11-15T09:22:07;9.55;;;2.05;;
24685;SDS011;12804;51.176;4.452;2022-11-15T09:24:52;8.75;;;2.53;;
24685;SDS011;12804;51.176;4.452;2022-11-15T09:27:36;5.45;;;1.92;;
24685;SDS011;12804;51.176;4.452;2022-11-15T09:30:21;6.50;;;1.90;;
24685;SDS011;12804;51.176;4.452;2022-11-15T09:33:08;5.03;;;2.00;;
24685;SDS011;12804;51.176;4.452;2022-11-15T09:35:58;5.15;;;1.27;;
24685;SDS011;12804;51.176;4.452;2022-11-15T09:38:45;5.00;;;1.67;;
24685;SDS011;12804;51.176;4.452;2022-11-15T09:41:34;6.38;;;1.67;;
24685;SDS011;12804;51.176;4.452;2022-11-15T09:50:48;5.95;;;1.88;;
24685;SDS011;12804;51.176;4.452;2022-11-15T09:56:26;5.10;;;1.17;;
24685;SDS011;12804;51.176;4.452;2022-11-15T10:04:32;6.15;;;0.93;;
24685;SDS011;12804;51.176;4.452;2022-11-15T10:12:02;5.88;;;0.82;;
24685;SDS011;12804;51.176;4.452;2022-11-15T10:14:28;7.47;;;1.40;;
24685;SDS011;12804;51.176;4.452;2022-11-15T10:17:02;10.15;;;1.40;;
24685;SDS011;12804;51.176;4.452;2022-11-15T10:24:46;5.53;;;0.95;;
24685;SDS011;12804;51.176;4.452;2022-11-15T10:27:16;4.40;;;1.23;;
24685;SDS011;12804;51.176;4.452;2022-11-15T10:29:47;6.43;;;1.00;;
24685;SDS011;12804;51.176;4.452;2022-11-15T10:32:19;3.15;;;1.08;;
24685;SDS011;12804;51.176;4.452;2022-11-15T10:34:46;4.00;;;0.82;;
24685;SDS011;12804;51.176;4.452;2022-11-15T10:37:14;4.07;;;1.10;;
24685;SDS011;12804;51.176;4.452;2022-11-15T10:40:04;6.55;;;1.40;;
24685;SDS011;12804;51.176;4.452;2022-11-15T10:42:32;5.60;;;1.30;;
24685;SDS011;12804;51.176;4.452;2022-11-15T10:44:58;7.95;;;1.00;;
24685;SDS011;12804;51.176;4.452;2022-11-15T10:47:28;7.53;;;1.33;;
24685;SDS011;12804;51.176;4.452;2022-11-15T10:50:06;3.90;;;0.95;;
24685;SDS011;12804;51.176;4.452;2022-11-15T10:52:51;10.20;;;1.10;;
24685;SDS011;12804;51.176;4.452;2022-11-15T10:57:48;5.47;;;1.00;;
24685;SDS011;12804;51.176;4.452;2022-11-15T11:00:34;6.28;;;1.30;;
24685;SDS011;12804;51.176;4.452;2022-11-15T11:03:05;5.93;;;1.23;;
24685;SDS011;12804;51.176;4.452;2022-11-15T11:05:50;7.25;;;1.15;;
24685;SDS011;12804;51.176;4.452;2022-11-15T11:08:34;4.25;;;1.00;;
24685;SDS011;12804;51.176;4.452;2022-11-15T11:11:01;3.75;;;0.98;;
24685;SDS011;12804;51.176;4.452;2022-11-15T11:13:36;4.65;;;0.90;;
24685;SDS011;12804;51.176;4.452;2022-11-15T11:21:33;5.38;;;0.98;;
24685;SDS011;12804;51.176;4.452;2022-11-15T11:24:18;11.80;;;1.05;;
24685;SDS011;12804;51.176;4.452;2022-11-15T11:29:40;4.47;;;0.82;;
24685;SDS011;12804;51.176;4.452;2022-11-15T11:35:13;3.30;;;1.10;;
24685;SDS011;12804;51.176;4.452;2022-11-15T11:40:44;8.98;;;1.00;;
24685;SDS011;12804;51.176;4.452;2022-11-15T11:46:01;7.15;;;0.80;;
24685;SDS011;12804;51.176;4.452;2022-11-15T11:48:39;5.22;;;0.93;;
24685;SDS011;12804;51.176;4.452;2022-11-15T11:51:13;6.63;;;1.23;;
24685;SDS011;12804;51.176;4.452;2022-11-15T11:53:57;6.60;;;1.00;;
24685;SDS011;12804;51.176;4.452;2022-11-15T11:56:26;4.05;;;0.85;;
24685;SDS011;12804;51.176;4.452;2022-11-15T11:58:55;2.65;;;0.82;;
24685;SDS011;12804;51.176;4.452;2022-11-15T12:01:36;4.03;;;1.25;;
24685;SDS011;12804;51.176;4.452;2022-11-15T12:07:24;4.93;;;1.17;;
24685;SDS011;12804;51.176;4.452;2022-11-15T12:12:51;4.43;;;0.93;;
24685;SDS011;12804;51.176;4.452;2022-11-15T12:15:39;7.18;;;1.15;;
24685;SDS011;12804;51.176;4.452;2022-11-15T12:18:11;5.78;;;1.05;;
24685;SDS011;12804;51.176;4.452;2022-11-15T12:20:41;5.03;;;0.82;;
24685;SDS011;12804;51.176;4.452;2022-11-15T12:31:14;5.68;;;0.98;;
24685;SDS011;12804;51.176;4.452;2022-11-15T12:33:44;3.10;;;0.90;;
24685;SDS011;12804;51.176;4.452;2022-11-15T12:36:29;4.00;;;1.10;;
24685;SDS011;12804;51.176;4.452;2022-11-15T12:38:59;7.70;;;1.20;;
24685;SDS011;12804;51.176;4.452;2022-11-15T12:41:29;3.95;;;1.10;;
24685;SDS011;12804;51.176;4.452;2022-11-15T12:43:57;6.50;;;1.73;;
24685;SDS011;12804;51.176;4.452;2022-11-15T13:20:17;4.30;;;0.93;;
24685;SDS011;12804;51.176;4.452;2022-11-15T13:30:36;3.40;;;1.20;;
24685;SDS011;12804;51.176;4.452;2022-11-15T13:33:22;4.50;;;1.25;;
24685;SDS011;12804;51.176;4.452;2022-11-15T13:36:12;8.98;;;1.67;;
24685;SDS011;12804;51.176;4.452;2022-11-15T13:39:02;2.95;;;1.05;;
24685;SDS011;12804;51.176;4.452;2022-11-15T13:41:47;2.92;;;1.10;;
24685;SDS011;12804;51.176;4.452;2022-11-15T13:44:24;5.22;;;1.00;;
24685;SDS011;12804;51.176;4.452;2022-11-15T13:47:02;6.53;;;1.00;;
24685;SDS011;12804;51.176;4.452;2022-11-15T13:49:33;4.50;;;1.00;;
24685;SDS011;12804;51.176;4.452;2022-11-15T13:52:04;3.58;;;1.00;;
24685;SDS011;12804;51.176;4.452;2022-11-15T13:59:35;2.13;;;0.90;;
24685;SDS011;12804;51.176;4.452;2022-11-15T14:02:26;3.17;;;1.05;;
24685;SDS011;12804;51.176;4.452;2022-11-15T14:05:14;4.03;;;0.90;;
24685;SDS011;12804;51.176;4.452;2022-11-15T14:07:40;2.88;;;0.70;;
24685;SDS011;12804;51.176;4.452;2022-11-15T14:10:27;7.13;;;1.38;;
24685;SDS011;12804;51.176;4.452;2022-11-15T14:12:58;4.50;;;1.05;;
24685;SDS011;12804;51.176;4.452;2022-11-15T14:17:53;3.10;;;0.93;;
24685;SDS011;12804;51.176;4.452;2022-11-15T14:20:29;8.90;;;1.00;;
24685;SDS011;12804;51.176;4.452;2022-11-15T14:23:02;2.95;;;1.00;;
24685;SDS011;12804;51.176;4.452;2022-11-15T14:25:30;3.28;;;0.90;;
24685;SDS011;12804;51.176;4.452;2022-11-15T14:28:28;4.07;;;1.10;;
24685;SDS011;12804;51.176;4.452;2022-11-15T14:30:58;3.22;;;0.90;;
24685;SDS011;12804;51.176;4.452;2022-11-15T14:35:54;4.00;;;1.25;;
24685;SDS011;12804;51.176;4.452;2022-11-15T14:38:25;2.58;;;1.00;;
24685;SDS011;12804;51.176;4.452;2022-11-15T14:40:52;2.97;;;1.00;;
24685;SDS011;12804;51.176;4.452;2022-11-15T14:43:20;2.67;;;1.02;;
24685;SDS011;12804;51.176;4.452;2022-11-15T14:45:45;3.88;;;1.10;;
24685;SDS011;12804;51.176;4.452;2022-11-15T14:48:11;2.50;;;1.00;;
24685;SDS011;12804;51.176;4.452;2022-11-15T14:50:37;1.92;;;0.93;;
24685;SDS011;12804;51.176;4.452;2022-11-15T14:53:04;2.55;;;0.80;;
24685;SDS011;12804;51.176;4.452;2022-11-15T14:55:31;2.22;;;1.00;;
24685;SDS011;12804;51.176;4.452;2022-11-15T14:58:04;2.03;;;0.98;;
24685;SDS011;12804;51.176;4.452;2022-11-15T15:00:36;2.88;;;0.98;;
24685;SDS011;12804;51.176;4.452;2022-11-15T15:03:04;3.40;;;1.23;;
24685;SDS011;12804;51.176;4.452;2022-11-15T15:05:32;3.58;;;1.33;;
24685;SDS011;12804;51.176;4.452;2022-11-15T15:07:58;4.07;;;1.63;;
24685;SDS011;12804;51.176;4.452;2022-11-15T15:10:25;4.22;;;1.27;;
24685;SDS011;12804;51.176;4.452;2022-11-15T15:12:56;4.18;;;1.05;;
24685;SDS011;12804;51.176;4.452;2022-11-15T15:15:24;2.60;;;1.30;;
24685;SDS011;12804;51.176;4.452;2022-11-15T15:17:51;4.38;;;1.20;;
24685;SDS011;12804;51.176;4.452;2022-11-15T15:20:17;2.88;;;1.00;;
24685;SDS011;12804;51.176;4.452;2022-11-15T15:22:43;3.10;;;1.58;;
24685;SDS011;12804;51.176;4.452;2022-11-15T15:25:24;3.47;;;1.45;;
24685;SDS011;12804;51.176;4.452;2022-11-15T15:27:59;3.92;;;1.60;;
24685;SDS011;12804;51.176;4.452;2022-11-15T15:30:26;5.03;;;1.83;;
24685;SDS011;12804;51.176;4.452;2022-11-15T15:32:53;3.05;;;1.75;;
24685;SDS011;12804;51.176;4.452;2022-11-15T15:35:19;4.85;;;1.63;;
24685;SDS011;12804;51.176;4.452;2022-11-15T15:37:46;3.40;;;1.52;;
24685;SDS011;12804;51.176;4.452;2022-11-15T15:40:14;5.82;;;1.73;;
24685;SDS011;12804;51.176;4.452;2022-11-15T15:42:48;3.38;;;1.95;;
24685;SDS011;12804;51.176;4.452;2022-11-15T15:45:15;4.93;;;2.33;;
24685;SDS011;12804;51.176;4.452;2022-11-15T15:47:42;5.00;;;2.80;;
24685;SDS011;12804;51.176;4.452;2022-11-15T15:50:31;7.20;;;4.65;;
24685;SDS011;12804;51.176;4.452;2022-11-15T15:52:57;7.13;;;3.20;;
24685;SDS011;12804;51.176;4.452;2022-11-15T15:55:25;5.47;;;3.08;;
24685;SDS011;12804;51.176;4.452;2022-11-15T15:57:51;4.60;;;2.42;;
24685;SDS011;12804;51.176;4.452;2022-11-15T16:00:18;4.35;;;2.25;;
24685;SDS011;12804;51.176;4.452;2022-11-15T16:02:45;4.13;;;2.00;;
24685;SDS011;12804;51.176;4.452;2022-11-15T16:05:25;5.50;;;2.60;;
24685;SDS011;12804;51.176;4.452;2022-11-15T16:07:50;4.07;;;2.38;;
24685;SDS011;12804;51.176;4.452;2022-11-15T16:10:23;3.30;;;2.30;;
24685;SDS011;12804;51.176;4.452;2022-11-15T16:12:51;4.65;;;2.40;;
24685;SDS011;12804;51.176;4.452;2022-11-15T16:15:18;3.25;;;1.98;;
24685;SDS011;12804;51.176;4.452;2022-11-15T16:17:51;3.28;;;1.90;;
24685;SDS011;12804;51.176;4.452;2022-11-15T16:23:08;2.33;;;2.08;;
24685;SDS011;12804;51.176;4.452;2022-11-15T16:25:48;2.80;;;2.03;;
24685;SDS011;12804;51.176;4.452;2022-11-15T16:30:58;3.67;;;3.00;;
24685;SDS011;12804;51.176;4.452;2022-11-15T16:33:29;3.17;;;2.88;;
24685;SDS011;12804;51.176;4.452;2022-11-15T16:35:55;3.80;;;2.55;;
24685;SDS011;12804;51.176;4.452;2022-11-15T16:38:20;2.58;;;2.38;;
24685;SDS011;12804;51.176;4.452;2022-11-15T16:40:46;2.95;;;2.50;;
24685;SDS011;12804;51.176;4.452;2022-11-15T16:43:12;3.58;;;2.10;;
24685;SDS011;12804;51.176;4.452;2022-11-15T16:45:38;3.78;;;2.50;;
24685;SDS011;12804;51.176;4.452;2022-11-15T16:48:04;3.67;;;2.30;;
24685;SDS011;12804;51.176;4.452;2022-11-15T16:50:31;3.63;;;2.35;;
24685;SDS011;12804;51.176;4.452;2022-11-15T16:53:05;3.03;;;2.65;;
24685;SDS011;12804;51.176;4.452;2022-11-15T16:55:31;5.63;;;2.78;;
24685;SDS011;12804;51.176;4.452;2022-11-15T16:57:57;6.03;;;3.13;;
24685;SDS011;12804;51.176;4.452;2022-11-15T17:00:23;5.38;;;3.70;;
24685;SDS011;12804;51.176;4.452;2022-11-15T17:02:49;7.18;;;4.30;;
24685;SDS011;12804;51.176;4.452;2022-11-15T17:05:20;5.28;;;3.38;;
24685;SDS011;12804;51.176;4.452;2022-11-15T17:07:48;3.92;;;3.35;;
24685;SDS011;12804;51.176;4.452;2022-11-15T17:10:16;4.00;;;3.35;;
24685;SDS011;12804;51.176;4.452;2022-11-15T17:12:42;4.38;;;2.90;;
24685;SDS011;12804;51.176;4.452;2022-11-15T17:15:09;3.40;;;3.00;;
24685;SDS011;12804;51.176;4.452;2022-11-15T17:17:37;4.80;;;3.20;;
24685;SDS011;12804;51.176;4.452;2022-11-15T17:20:03;4.95;;;2.80;;
24685;SDS011;12804;51.176;4.452;2022-11-15T17:22:34;2.90;;;2.70;;
24685;SDS011;12804;51.176;4.452;2022-11-15T17:25:01;5.30;;;2.83;;
24685;SDS011;12804;51.176;4.452;2022-11-15T17:27:27;3.45;;;2.63;;
24685;SDS011;12804;51.176;4.452;2022-11-15T17:29:54;5.53;;;3.30;;
24685;SDS011;12804;51.176;4.452;2022-11-15T17:32:19;5.80;;;3.60;;
24685;SDS011;12804;51.176;4.452;2022-11-15T17:34:45;5.53;;;2.85;;
24685;SDS011;12804;51.176;4.452;2022-11-15T17:37:11;4.32;;;3.30;;
24685;SDS011;12804;51.176;4.452;2022-11-15T17:39:37;3.88;;;3.22;;
24685;SDS011;12804;51.176;4.452;2022-11-15T17:42:03;3.78;;;3.40;;
24685;SDS011;12804;51.176;4.452;2022-11-15T17:44:28;5.07;;;4.00;;
24685;SDS011;12804;51.176;4.452;2022-11-15T17:46:55;6.57;;;3.92;;
24685;SDS011;12804;51.176;4.452;2022-11-15T17:49:20;4.55;;;3.67;;
24685;SDS011;12804;51.176;4.452;2022-11-15T17:51:46;5.55;;;4.05;;
24685;SDS011;12804;51.176;4.452;2022-11-15T17:54:12;6.28;;;3.80;;
24685;SDS011;12804;51.176;4.452;2022-11-15T17:56:38;6.95;;;4.13;;
24685;SDS011;12804;51.176;4.452;2022-11-15T17:59:05;3.92;;;3.53;;
24685;SDS011;12804;51.176;4.452;2022-11-15T18:01:33;4.00;;;3.50;;
24685;SDS011;12804;51.176;4.452;2022-11-15T18:04:01;4.13;;;3.72;;
24685;SDS011;12804;51.176;4.452;2022-11-15T18:06:29;4.68;;;4.03;;
24685;SDS011;12804;51.176;4.452;2022-11-15T18:08:57;6.15;;;4.03;;
24685;SDS011;12804;51.176;4.452;2022-11-15T18:11:45;4.72;;;4.32;;
24685;SDS011;12804;51.176;4.452;2022-11-15T18:14:14;6.55;;;4.25;;
24685;SDS011;12804;51.176;4.452;2022-11-15T18:16:40;4.90;;;4.40;;
24685;SDS011;12804;51.176;4.452;2022-11-15T18:19:06;5.53;;;4.93;;
24685;SDS011;12804;51.176;4.452;2022-11-15T18:21:37;7.05;;;4.55;;
24685;SDS011;12804;51.176;4.452;2022-11-15T18:24:33;5.35;;;4.25;;
24685;SDS011;12804;51.176;4.452;2022-11-15T18:27:01;4.82;;;4.43;;